Time;durP1;ratioP1;P1;durP2;ratioP2;P2;SDS_P1;SDS_P2;PMS_P1;PMS_P2;Temp;Humidity;BMP_temperature;BMP_pressure;BME280_temperature;BME280_humidity;BME280_pressure;Samples;Min_cycle;Max_cycle;Signal;HPM_P1;HPM_P2
2022/03/04 00:01:46;;;;;;;17.52;12.40;;;;;;;5.54;51.71;101864.44;5025950;28;20073;-48
2022/03/04 00:04:14;;;;;;;15.25;11.05;;;;;;;5.58;51.71;101859.41;5013291;28;20057;-42
2022/03/04 00:06:42;;;;;;;16.73;11.98;;;;;;;5.58;51.57;101867.53;5031124;28;20049;-45
2022/03/04 00:09:10;;;;;;;16.45;11.68;;;;;;;5.52;51.63;101867.34;5035515;28;20037;-47
2022/03/04 00:11:38;;;;;;;18.42;12.40;;;;;;;5.48;51.84;101870.66;5034302;28;20181;-46
2022/03/04 00:14:06;;;;;;;14.73;10.93;;;;;;;5.51;51.81;101870.25;5035131;28;20480;-47
2022/03/04 00:16:34;;;;;;;15.80;11.48;;;;;;;5.49;51.86;101873.16;5033556;28;20044;-46
2022/03/04 00:19:09;;;;;;;15.98;11.80;;;;;;;5.49;52.13;101870.47;5017331;28;20404;-48
2022/03/04 00:21:39;;;;;;;19.10;11.70;;;;;;;5.55;51.94;101876.88;5015267;28;20101;-45
2022/03/04 00:24:08;;;;;;;15.68;11.00;;;;;;;5.57;51.75;101880.22;5029791;28;20292;-43
2022/03/04 00:26:36;;;;;;;16.45;11.75;;;;;;;5.50;51.93;101877.50;5029802;28;20077;-42
2022/03/04 00:29:05;;;;;;;15.52;11.80;;;;;;;5.48;51.90;101882.31;5013927;28;20128;-42
2022/03/04 00:31:33;;;;;;;16.05;11.60;;;;;;;5.50;51.88;101884.81;5013522;28;20034;-43
2022/03/04 00:34:02;;;;;;;17.70;11.73;;;;;;;5.42;52.31;101885.84;5013940;28;20455;-48
2022/03/04 00:36:30;;;;;;;17.92;12.02;;;;;;;5.43;52.19;101883.97;5002059;28;20042;-48
2022/03/04 00:38:58;;;;;;;16.52;11.88;;;;;;;5.41;52.37;101889.59;5013924;28;20074;-47
2022/03/04 00:41:25;;;;;;;17.55;11.77;;;;;;;5.38;52.41;101892.69;5014914;28;20157;-47
2022/03/04 00:43:53;;;;;;;16.88;11.70;;;;;;;5.40;52.45;101892.50;5032130;28;20049;-44
2022/03/04 00:46:21;;;;;;;16.67;11.88;;;;;;;5.33;52.48;101887.09;5028980;28;20045;-45
2022/03/04 00:48:49;;;;;;;18.50;12.25;;;;;;;5.21;52.75;101880.63;5015182;28;20089;-45
2022/03/04 00:51:17;;;;;;;17.67;11.73;;;;;;;5.15;53.22;101876.03;5015746;28;20068;-43
2022/03/04 00:53:44;;;;;;;17.55;12.48;;;;;;;5.11;53.35;101879.16;5034592;28;20412;-43
2022/03/04 00:56:13;;;;;;;17.63;12.48;;;;;;;5.08;53.20;101876.88;5032586;28;20052;-46
2022/03/04 00:58:40;;;;;;;16.05;11.48;;;;;;;5.12;53.51;101882.69;5034277;28;20041;-44
2022/03/04 01:01:09;;;;;;;17.20;11.85;;;;;;;5.16;53.67;101877.72;5034346;28;20041;-42
2022/03/04 01:03:37;;;;;;;15.85;11.52;;;;;;;5.19;53.27;101888.09;5017007;28;20046;-42
2022/03/04 01:06:06;;;;;;;19.58;12.32;;;;;;;5.11;53.27;101889.13;5030916;28;20124;-43
2022/03/04 01:08:33;;;;;;;16.35;11.95;;;;;;;5.01;53.58;101884.13;5034231;28;20042;-43
2022/03/04 01:11:02;;;;;;;15.10;10.93;;;;;;;4.98;53.93;101891.81;5032070;28;20045;-42
2022/03/04 01:13:30;;;;;;;16.63;12.40;;;;;;;4.98;53.82;101891.81;5034070;28;20038;-43
2022/03/04 01:15:58;;;;;;;19.05;12.63;;;;;;;4.94;54.20;101888.69;5026442;28;20046;-43
2022/03/04 01:18:26;;;;;;;18.17;12.20;;;;;;;4.89;54.03;101888.47;5013161;28;20077;-43
2022/03/04 01:20:53;;;;;;;17.20;12.45;;;;;;;4.73;54.83;101899.63;5014590;28;20152;-44
2022/03/04 01:23:21;;;;;;;17.45;12.55;;;;;;;4.74;54.65;101895.88;5014852;28;20041;-47
2022/03/04 01:25:52;;;;;;;16.10;11.82;;;;;;;4.81;54.54;101897.59;5026274;28;20033;-49
2022/03/04 01:28:21;;;;;;;18.05;12.45;;;;;;;4.80;54.81;101890.50;5014703;28;20049;-47
2022/03/04 01:30:49;;;;;;;17.52;12.45;;;;;;;4.75;54.52;101886.78;5013250;28;20042;-48
2022/03/04 01:33:17;;;;;;;15.40;12.18;;;;;;;4.63;55.15;101889.22;5034022;28;20045;-48
2022/03/04 01:35:45;;;;;;;17.15;12.95;;;;;;;4.62;54.97;101891.09;5019990;28;20080;-47
2022/03/04 01:38:12;;;;;;;17.55;12.15;;;;;;;4.62;55.06;101893.78;5033657;28;20132;-48
2022/03/04 01:40:40;;;;;;;20.65;12.88;;;;;;;4.62;55.09;101891.09;5032743;28;20043;-48
2022/03/04 01:43:08;;;;;;;17.58;12.52;;;;;;;4.63;55.60;101884.66;5033487;28;20097;-47
2022/03/04 01:45:36;;;;;;;16.38;12.35;;;;;;;4.65;55.60;101887.97;5032820;28;20041;-46
2022/03/04 01:48:04;;;;;;;16.77;12.48;;;;;;;4.70;55.48;101882.81;5018838;28;20041;-48
2022/03/04 01:50:32;;;;;;;16.58;12.38;;;;;;;4.66;55.43;101884.22;5012405;28;20050;-45
2022/03/04 01:53:00;;;;;;;18.52;13.05;;;;;;;4.63;55.15;101892.75;5013721;28;20468;-47
2022/03/04 01:55:28;;;;;;;17.67;12.50;;;;;;;4.67;55.40;101887.78;5015028;28;20445;-47
2022/03/04 01:57:55;;;;;;;16.52;11.70;;;;;;;4.73;55.14;101888.84;5021478;28;20068;-45
2022/03/04 02:00:25;;;;;;;19.40;12.80;;;;;;;4.69;55.18;101893.81;5033205;28;20057;-46
2022/03/04 02:02:57;;;;;;;17.35;12.30;;;;;;;4.66;55.75;101889.63;5033109;28;20049;-47
2022/03/04 02:05:26;;;;;;;17.65;13.50;;;;;;;4.54;55.99;101883.16;5015132;28;20444;-48
2022/03/04 02:07:54;;;;;;;15.63;11.70;;;;;;;4.48;55.88;101886.69;5024597;28;20034;-47
2022/03/04 02:10:21;;;;;;;15.63;12.10;;;;;;;4.51;56.35;101888.13;5013576;28;20037;-46
2022/03/04 02:12:50;;;;;;;18.58;12.65;;;;;;;4.57;55.77;101885.47;5012955;28;20041;-45
2022/03/04 02:15:17;;;;;;;19.85;13.35;;;;;;;4.61;55.89;101886.72;5014712;28;20403;-47
2022/03/04 02:17:45;;;;;;;17.38;13.02;;;;;;;4.59;56.00;101885.25;5029814;28;20052;-46
2022/03/04 02:20:13;;;;;;;18.02;13.30;;;;;;;4.57;55.78;101885.47;5031696;28;20053;-46
2022/03/04 02:22:41;;;;;;;17.42;12.80;;;;;;;4.57;56.01;101888.16;5032909;28;20060;-42
2022/03/04 02:25:09;;;;;;;17.27;13.35;;;;;;;4.60;56.16;101889.63;5015689;28;20049;-47
2022/03/04 02:27:37;;;;;;;19.98;13.80;;;;;;;4.58;55.68;101887.13;5013359;28;20549;-48
2022/03/04 02:30:05;;;;;;;21.73;13.95;;;;;;;4.56;56.11;101883.78;5013333;28;20129;-47
2022/03/04 02:32:34;;;;;;;18.48;13.38;;;;;;;4.48;55.92;101881.28;5013251;28;20046;-49
2022/03/04 02:35:03;;;;;;;19.50;13.93;;;;;;;4.40;56.41;101887.69;5022062;28;20057;-49
2022/03/04 02:37:31;;;;;;;17.77;13.45;;;;;;;4.40;56.57;101885.00;5014548;28;20042;-48
2022/03/04 02:39:58;;;;;;;16.48;13.23;;;;;;;4.38;56.83;101878.13;5013180;28;20473;-49
2022/03/04 02:42:26;;;;;;;18.15;13.40;;;;;;;4.39;56.88;101877.09;5013109;28;20065;-48
2022/03/04 02:44:54;;;;;;;18.45;13.45;;;;;;;4.45;56.99;101881.69;5012218;28;20518;-49
2022/03/04 02:47:21;;;;;;;20.38;13.75;;;;;;;4.46;56.35;101883.34;5013618;28;20044;-47
2022/03/04 02:49:50;;;;;;;19.20;14.45;;;;;;;4.42;56.72;101882.06;5017232;28;20499;-47
2022/03/04 02:52:17;;;;;;;19.98;14.02;;;;;;;4.32;56.77;101881.63;5016961;28;20056;-46
2022/03/04 02:54:45;;;;;;;22.02;14.45;;;;;;;4.32;56.75;101887.84;5018201;28;20457;-46
2022/03/04 02:57:13;;;;;;;17.17;13.25;;;;;;;4.31;57.37;101879.97;5027297;28;20116;-49
2022/03/04 02:59:40;;;;;;;18.08;13.65;;;;;;;4.35;57.24;101882.03;5035425;28;20049;-48
2022/03/04 03:02:08;;;;;;;18.13;13.65;;;;;;;4.29;57.33;101873.94;5020036;28;20042;-48
2022/03/04 03:04:36;;;;;;;21.27;14.75;;;;;;;4.30;57.37;101872.88;5016738;28;20053;-48
2022/03/04 03:07:04;;;;;;;18.55;14.00;;;;;;;4.26;57.10;101878.69;5017115;28;20038;-46
2022/03/04 03:09:32;;;;;;;20.67;14.07;;;;;;;4.23;57.66;101881.78;5016632;28;20124;-48
2022/03/04 03:12:00;;;;;;;20.40;14.68;;;;;;;4.25;57.64;101877.00;5016805;28;20129;-47
2022/03/04 03:14:27;;;;;;;17.38;13.52;;;;;;;4.27;57.52;101880.34;5015501;28;20042;-46
2022/03/04 03:16:55;;;;;;;21.40;15.18;;;;;;;4.30;57.39;101886.38;5017535;28;20152;-45
2022/03/04 03:19:23;;;;;;;19.10;14.18;;;;;;;4.29;57.24;101876.63;5026914;28;20050;-47
2022/03/04 03:21:51;;;;;;;18.75;14.10;;;;;;;4.31;57.29;101879.97;5036051;28;20045;-46
2022/03/04 03:24:19;;;;;;;18.10;13.57;;;;;;;4.34;56.95;101874.16;5036100;28;20099;-45
2022/03/04 03:26:47;;;;;;;18.42;14.10;;;;;;;4.33;57.00;101877.88;5023022;28;20037;-48
2022/03/04 03:29:14;;;;;;;18.13;13.32;;;;;;;4.31;57.50;101875.41;5016245;28;20129;-47
2022/03/04 03:31:42;;;;;;;19.23;14.18;;;;;;;4.32;56.93;101882.44;5017423;28;20046;-47
2022/03/04 03:34:10;;;;;;;18.40;13.57;;;;;;;4.29;57.76;101888.25;5016344;28;20396;-47
2022/03/04 03:36:38;;;;;;;20.15;14.77;;;;;;;4.22;57.75;101888.19;5016318;28;20126;-47
2022/03/04 03:39:05;;;;;;;21.35;14.63;;;;;;;4.14;58.28;101888.38;5027271;28;20061;-46
2022/03/04 03:41:33;;;;;;;19.08;14.38;;;;;;;4.12;57.93;101893.13;5035793;28;20045;-49
2022/03/04 03:44:01;;;;;;;20.20;15.60;;;;;;;4.12;58.25;101892.31;5025846;28;20501;-47
2022/03/04 03:46:28;;;;;;;20.27;14.75;;;;;;;4.12;57.77;101885.03;5014887;28;20050;-47
2022/03/04 03:48:56;;;;;;;19.58;14.68;;;;;;;4.08;58.09;101886.47;5015989;28;20534;-47
2022/03/04 03:51:24;;;;;;;20.45;15.10;;;;;;;4.04;58.15;101885.19;5015768;28;20060;-45
2022/03/04 03:53:51;;;;;;;19.85;15.15;;;;;;;4.01;58.45;101890.97;5021218;28;20527;-46
2022/03/04 03:56:19;;;;;;;21.42;15.60;;;;;;;4.02;57.95;101888.09;5033313;28;20060;-46
2022/03/04 03:58:47;;;;;;;19.85;14.18;;;;;;;3.97;58.35;101889.69;5015486;28;20137;-47
2022/03/04 04:01:14;;;;;;;21.50;15.45;;;;;;;3.87;58.49;101890.06;5015817;28;20042;-48
2022/03/04 04:03:42;;;;;;;18.92;14.30;;;;;;;3.83;58.71;101884.25;5015640;28;20484;-47
2022/03/04 04:06:10;;;;;;;21.95;14.60;;;;;;;3.82;58.86;101893.38;5015424;28;20034;-49
2022/03/04 04:08:37;;;;;;;23.48;16.23;;;;;;;3.76;58.61;101899.53;5014359;28;20122;-46
2022/03/04 04:11:05;;;;;;;20.60;14.70;;;;;;;3.68;59.24;101907.78;5033199;28;20052;-49
2022/03/04 04:13:33;;;;;;;22.48;16.02;;;;;;;3.59;59.81;101903.56;5028664;28;20041;-49
2022/03/04 04:16:01;;;;;;;22.73;15.88;;;;;;;3.52;60.05;101918.84;5016292;28;20132;-49
2022/03/04 04:18:28;;;;;;;23.58;15.10;;;;;;;3.52;60.27;101911.56;5034001;28;20049;-45
2022/03/04 04:20:57;;;;;;;20.13;15.10;;;;;;;3.56;59.99;101909.31;5035269;28;20403;-48
2022/03/04 04:23:24;;;;;;;21.02;15.20;;;;;;;3.62;60.50;101908.53;5017231;28;20038;-47
2022/03/04 04:25:52;;;;;;;20.52;14.93;;;;;;;3.66;59.98;101914.41;5015426;28;20048;-47
2022/03/04 04:28:21;;;;;;;20.05;15.05;;;;;;;3.65;59.81;101915.41;5015188;28;20045;-46
2022/03/04 04:30:49;;;;;;;21.08;14.43;;;;;;;3.69;59.44;101912.13;5015589;28;20077;-51
2022/03/04 04:33:17;;;;;;;19.90;15.57;;;;;;;3.66;59.39;101907.13;5022217;28;20139;-47
2022/03/04 04:35:50;;;;;;;19.55;14.23;;;;;;;3.58;60.07;101904.56;5032970;28;20042;-48
2022/03/04 04:38:18;;;;;;;21.73;15.57;;;;;;;3.59;59.74;101900.88;5034842;28;20125;-49
2022/03/04 04:40:45;;;;;;;22.00;15.00;;;;;;;3.63;59.81;101907.50;5035261;28;20069;-48
2022/03/04 04:43:13;;;;;;;23.15;15.98;;;;;;;3.61;59.95;101906.91;5030865;28;20502;-50
2022/03/04 04:45:41;;;;;;;20.50;14.52;;;;;;;3.54;60.33;101900.63;5014924;28;20042;-49
2022/03/04 04:48:09;;;;;;;20.60;15.10;;;;;;;3.53;60.28;101905.16;5015749;28;20052;-49
2022/03/04 04:50:36;;;;;;;22.48;14.95;;;;;;;3.54;60.49;101906.00;5014636;28;20084;-49
2022/03/04 04:53:04;;;;;;;22.90;15.13;;;;;;;3.52;60.73;101902.66;5014965;28;20117;-48
2022/03/04 04:55:31;;;;;;;23.23;15.90;;;;;;;3.51;60.48;101907.22;5014686;28;20042;-50
2022/03/04 04:57:59;;;;;;;21.85;15.90;;;;;;;3.47;60.79;101900.56;5013517;28;20480;-49
2022/03/04 05:00:27;;;;;;;22.90;15.30;;;;;;;3.42;60.84;101905.69;5015913;28;20503;-47
2022/03/04 05:02:55;;;;;;;23.25;15.70;;;;;;;3.38;60.75;101902.53;5014679;28;20084;-50
2022/03/04 05:05:23;;;;;;;24.55;16.00;;;;;;;3.42;60.54;101906.53;5027243;28;20136;-48
2022/03/04 05:07:50;;;;;;;24.02;16.30;;;;;;;3.36;61.02;101909.97;5034267;28;20045;-48
2022/03/04 05:10:18;;;;;;;24.13;16.27;;;;;;;3.25;61.41;101910.50;5048837;28;20045;-48
2022/03/04 05:12:46;;;;;;;24.40;17.13;;;;;;;3.23;61.39;101912.56;5032366;28;20041;-50
2022/03/04 05:15:14;;;;;;;26.88;16.27;;;;;;;3.19;61.99;101903.19;5026230;28;20516;-47
2022/03/04 05:17:42;;;;;;;24.30;15.88;;;;;;;3.17;62.16;101907.94;5014516;28;20128;-47
2022/03/04 05:20:11;;;;;;;25.80;16.42;;;;;;;3.15;62.22;101908.13;5014318;28;20050;-48
2022/03/04 05:22:38;;;;;;;23.48;15.82;;;;;;;3.18;61.90;101909.63;5014349;28;20053;-48
2022/03/04 05:25:06;;;;;;;20.75;16.08;;;;;;;3.14;62.08;101909.16;5015944;28;20074;-51
2022/03/04 05:27:34;;;;;;;24.65;16.38;;;;;;;3.06;62.61;101913.84;5013144;28;20100;-48
2022/03/04 05:30:02;;;;;;;25.00;16.48;;;;;;;2.96;62.72;101914.97;5014140;28;20054;-49
2022/03/04 05:32:30;;;;;;;22.95;15.48;;;;;;;3.05;63.21;101920.22;5026658;28;20041;-47
2022/03/04 05:34:58;;;;;;;22.92;16.38;;;;;;;3.15;62.71;101912.66;5025008;28;20046;-47
2022/03/04 05:37:26;;;;;;;23.23;16.05;;;;;;;3.23;62.99;101914.44;5024297;28;20082;-49
2022/03/04 05:39:54;;;;;;;25.85;18.92;;;;;;;3.24;62.67;101906.13;5033656;28;20475;-46
2022/03/04 05:42:21;;;;;;;23.98;17.52;;;;;;;3.14;62.57;101921.78;5033257;28;20508;-48
2022/03/04 05:44:49;;;;;;;25.15;18.77;;;;;;;2.99;63.32;101922.66;5032512;28;20049;-49
2022/03/04 05:47:17;;;;;;;27.08;18.92;;;;;;;2.82;64.10;101923.94;5033218;28;20033;-51
2022/03/04 05:49:44;;;;;;;24.55;18.60;;;;;;;2.80;64.29;101931.34;5031446;28;20484;-47
2022/03/04 05:52:12;;;;;;;22.95;16.67;;;;;;;2.86;64.14;101933.31;5032792;28;20144;-48
2022/03/04 05:54:39;;;;;;;27.27;17.45;;;;;;;2.92;64.09;101940.59;5024944;28;20120;-52
2022/03/04 05:57:07;;;;;;;26.73;16.63;;;;;;;2.95;63.88;101940.22;5012460;28;20062;-51
2022/03/04 05:59:35;;;;;;;26.73;17.92;;;;;;;2.93;63.79;101942.25;5013521;28;20076;-44
2022/03/04 06:02:03;;;;;;;25.48;18.45;;;;;;;2.89;63.96;101949.06;5014106;28;20060;-51
2022/03/04 06:04:31;;;;;;;25.25;17.85;;;;;;;2.77;64.93;101947.88;5013277;28;20044;-47
2022/03/04 06:06:58;;;;;;;28.15;18.58;;;;;;;2.73;65.00;101951.97;5013305;28;20492;-51
2022/03/04 06:09:28;;;;;;;29.67;19.77;;;;;;;2.69;65.58;101945.28;5013493;28;20084;-50
2022/03/04 06:11:57;;;;;;;26.02;20.20;;;;;;;2.59;65.77;101950.97;5013455;28;20054;-48
2022/03/04 06:14:24;;;;;;;27.05;19.67;;;;;;;2.48;66.20;101943.38;5015284;28;20116;-45
2022/03/04 06:16:52;;;;;;;28.73;20.65;;;;;;;2.42;66.63;101942.25;5013085;28;20411;-49
2022/03/04 06:19:20;;;;;;;26.20;19.25;;;;;;;2.44;66.80;101942.91;5013482;28;20049;-50
2022/03/04 06:21:48;;;;;;;25.05;18.40;;;;;;;2.59;66.28;101936.69;5013232;28;20091;-51
2022/03/04 06:24:15;;;;;;;23.38;15.68;;;;;;;2.69;66.57;101934.53;5013543;28;20145;-44
2022/03/04 06:26:43;;;;;;;26.23;18.95;;;;;;;2.78;65.84;101946.84;5016950;28;20053;-51
2022/03/04 06:29:11;;;;;;;23.77;15.98;;;;;;;2.77;65.85;101942.50;5013009;28;20050;-48
2022/03/04 06:31:38;;;;;;;24.55;17.05;;;;;;;2.64;66.76;101950.41;5022692;28;20038;-51
2022/03/04 06:34:06;;;;;;;27.88;19.02;;;;;;;2.61;66.74;101942.72;5031252;28;20045;-48
2022/03/04 06:36:34;;;;;;;23.30;17.15;;;;;;;2.69;66.86;101945.28;5031507;28;20052;-51
2022/03/04 06:39:01;;;;;;;27.58;17.02;;;;;;;2.84;66.06;101943.41;5014895;28;20046;-51
2022/03/04 06:41:29;;;;;;;26.23;17.45;;;;;;;2.80;65.69;101946.69;5020800;28;20037;-43
2022/03/04 06:43:57;;;;;;;27.33;19.65;;;;;;;2.77;65.74;101947.88;5031564;28;20053;-50
2022/03/04 06:46:25;;;;;;;26.08;18.50;;;;;;;2.76;66.63;101946.19;5029256;28;20093;-51
2022/03/04 06:48:52;;;;;;;25.67;18.55;;;;;;;2.77;66.11;101958.66;5022993;28;20045;-54
2022/03/04 06:51:20;;;;;;;25.40;17.80;;;;;;;2.79;66.29;101962.00;5016792;28;20610;-50
2022/03/04 06:53:48;;;;;;;24.92;17.90;;;;;;;2.81;66.12;101959.09;5013168;28;20050;-52
2022/03/04 06:56:18;;;;;;;23.88;17.15;;;;;;;2.85;66.37;101969.31;5012828;28;20048;-49
2022/03/04 06:58:51;;;;;;;25.08;18.85;;;;;;;2.81;66.70;101978.75;5013228;28;20046;-49
2022/03/04 07:01:18;;;;;;;24.75;18.52;;;;;;;2.86;66.17;101979.06;5013686;28;20061;-48
2022/03/04 07:03:46;;;;;;;28.42;18.48;;;;;;;2.86;65.89;101972.81;5012282;28;20088;-50
2022/03/04 07:06:16;;;;;;;28.60;19.35;;;;;;;2.81;65.95;101980.63;5012640;28;20129;-53
2022/03/04 07:08:43;;;;;;;24.15;18.52;;;;;;;2.77;66.37;101985.56;5011742;28;20404;-53
2022/03/04 07:11:11;;;;;;;25.20;18.27;;;;;;;2.76;66.59;101995.47;5012818;28;20489;-49
2022/03/04 07:13:39;;;;;;;26.77;18.55;;;;;;;2.80;67.07;102000.50;5032049;28;20043;-48
2022/03/04 07:16:06;;;;;;;27.15;18.65;;;;;;;2.86;66.92;101997.03;5031068;28;20407;-48
2022/03/04 07:18:34;;;;;;;28.63;19.13;;;;;;;2.89;66.32;102005.59;5012534;28;20108;-50
2022/03/04 07:21:03;;;;;;;28.88;20.48;;;;;;;2.90;66.13;102009.13;5012753;28;20137;-43
2022/03/04 07:23:31;;;;;;;30.48;19.33;;;;;;;2.96;66.57;102001.13;5014446;28;20073;-47
2022/03/04 07:25:58;;;;;;;27.70;20.38;;;;;;;2.98;66.57;101996.41;5032292;28;20044;-48
2022/03/04 07:28:26;;;;;;;28.85;19.45;;;;;;;3.05;66.23;102006.38;5032483;28;20488;-49
2022/03/04 07:30:53;;;;;;;27.13;18.98;;;;;;;3.12;66.58;102010.00;5030774;28;20185;-49
2022/03/04 07:33:21;;;;;;;27.85;19.33;;;;;;;3.13;65.78;102006.31;5021490;28;20046;-48
2022/03/04 07:35:49;;;;;;;28.77;18.20;;;;;;;3.11;66.29;102011.88;5016092;28;20037;-48
2022/03/04 07:38:16;;;;;;;29.60;19.40;;;;;;;3.12;65.86;102020.78;5016082;28;20137;-48
2022/03/04 07:40:45;;;;;;;28.42;19.60;;;;;;;3.05;66.28;102014.47;5015067;28;20048;-42
2022/03/04 07:43:13;;;;;;;25.60;19.65;;;;;;;2.99;67.00;102016.06;5020555;28;20053;-43
2022/03/04 07:45:40;;;;;;;28.83;20.55;;;;;;;2.96;67.29;102014.59;5036023;28;20095;-44
2022/03/04 07:48:09;;;;;;;35.05;19.65;;;;;;;3.02;66.83;102015.69;5035827;28;20124;-43
2022/03/04 07:50:36;;;;;;;32.55;20.27;;;;;;;2.99;66.35;102016.91;5021301;28;20461;-43
2022/03/04 07:53:04;;;;;;;25.15;18.45;;;;;;;3.02;66.38;102014.84;5016626;28;20050;-43
2022/03/04 07:55:31;;;;;;;26.20;18.45;;;;;;;3.03;66.60;102017.38;5018165;28;20046;-44
2022/03/04 07:57:59;;;;;;;24.67;16.88;;;;;;;3.05;66.59;102019.84;5014513;28;20049;-42
2022/03/04 08:00:27;;;;;;;26.08;18.65;;;;;;;3.06;66.12;102013.47;5014762;28;20046;-44
2022/03/04 08:02:56;;;;;;;26.33;17.80;;;;;;;3.13;66.31;102014.38;4332328;28;10000336;-42
2022/03/04 08:05:24;;;;;;;28.80;18.95;;;;;;;3.25;66.85;102007.47;5024084;28;20050;-46
2022/03/04 08:07:52;;;;;;;27.25;18.30;;;;;;;3.33;66.13;102012.72;5032218;28;20511;-49
2022/03/04 08:10:20;;;;;;;25.83;18.15;;;;;;;3.34;66.14;102017.09;5030870;28;20076;-47
2022/03/04 08:12:48;;;;;;;26.90;19.23;;;;;;;3.37;65.52;102021.28;5031109;28;20058;-47
2022/03/04 08:15:15;;;;;;;30.42;19.20;;;;;;;3.35;66.26;102010.69;5022643;28;20061;-45
2022/03/04 08:17:45;;;;;;;29.20;17.38;;;;;;;3.37;66.00;102019.41;5012528;28;20054;-48
2022/03/04 08:20:12;;;;;;;27.77;19.15;;;;;;;3.39;65.60;102022.75;5012648;28;20058;-44
2022/03/04 08:22:40;;;;;;;27.83;18.20;;;;;;;3.41;65.75;102020.69;5026981;28;20415;-46
2022/03/04 08:25:08;;;;;;;29.33;18.98;;;;;;;3.40;66.21;102029.81;5029762;28;20046;-46
2022/03/04 08:27:40;;;;;;;26.73;19.10;;;;;;;3.42;65.50;102026.94;5013280;28;20777;-48
2022/03/04 08:30:10;;;;;;;27.45;16.73;;;;;;;3.45;65.25;102041.88;5023755;28;20056;-43
2022/03/04 08:32:38;;;;;;;26.15;17.13;;;;;;;3.56;65.37;102038.66;5011942;28;20137;-44
2022/03/04 08:35:06;;;;;;;26.30;18.85;;;;;;;3.58;64.19;102036.59;5015474;28;20042;-45
2022/03/04 08:37:34;;;;;;;25.85;18.10;;;;;;;3.56;64.15;102044.03;5011872;28;20133;-46
2022/03/04 08:40:04;;;;;;;25.50;18.20;;;;;;;3.60;64.07;102050.72;5012853;28;20050;-46
2022/03/04 08:42:31;;;;;;;26.80;16.95;;;;;;;3.71;64.68;102046.72;5010652;28;20463;-47
2022/03/04 08:44:59;;;;;;;27.45;18.30;;;;;;;3.78;64.09;102053.00;5014710;28;20407;-46
2022/03/04 08:47:27;;;;;;;27.35;17.42;;;;;;;3.73;63.71;102047.31;5031202;28;20400;-45
2022/03/04 08:49:54;;;;;;;29.55;18.85;;;;;;;3.77;64.21;102052.13;5029866;28;20514;-46
2022/03/04 08:52:22;;;;;;;24.48;17.80;;;;;;;3.71;63.67;102058.31;5029330;28;20080;-48
2022/03/04 08:54:50;;;;;;;28.75;19.33;;;;;;;3.66;63.96;102059.94;5030674;28;20042;-45
2022/03/04 08:57:19;;;;;;;28.73;18.17;;;;;;;3.63;63.88;102063.81;5031262;28;20621;-50
2022/03/04 08:59:47;;;;;;;28.65;18.58;;;;;;;3.63;63.98;102066.50;5031222;28;20038;-46
2022/03/04 09:02:14;;;;;;;29.85;19.13;;;;;;;3.67;63.98;102067.81;5031090;28;20399;-48
2022/03/04 09:04:42;;;;;;;25.70;17.20;;;;;;;3.76;64.19;102065.84;5028717;28;20050;-49
2022/03/04 09:07:10;;;;;;;33.35;22.13;;;;;;;3.81;64.68;102058.00;5031194;28;20046;-46
2022/03/04 09:09:38;;;;;;;27.73;19.52;;;;;;;3.91;63.16;102073.84;5047394;28;20096;-47
2022/03/04 09:12:07;;;;;;;29.30;18.52;;;;;;;3.92;63.98;102075.50;5032589;28;20479;-49
2022/03/04 09:14:34;;;;;;;28.77;18.75;;;;;;;3.93;63.96;102069.09;5025514;28;20034;-49
2022/03/04 09:17:02;;;;;;;27.48;17.75;;;;;;;3.95;63.44;102058.97;5019122;28;20041;-48
2022/03/04 09:19:30;;;;;;;27.92;17.95;;;;;;;4.04;63.09;102057.78;5033909;28;20473;-45
2022/03/04 09:22:18;;;;;;;29.67;18.75;;;;;;;4.09;62.60;102059.91;5032909;28;20583;-46
2022/03/04 09:24:46;;;;;;;24.45;16.85;;;;;;;4.11;61.89;102047.88;5033287;28;20049;-46
2022/03/04 09:27:13;;;;;;;26.00;16.55;;;;;;;4.16;62.82;102045.47;5033738;28;20041;-47
2022/03/04 09:29:41;;;;;;;28.20;17.52;;;;;;;4.21;62.96;102042.16;5028950;28;20508;-47
2022/03/04 09:32:09;;;;;;;28.63;16.60;;;;;;;4.30;62.74;102050.94;5014050;28;20492;-48
2022/03/04 09:34:36;;;;;;;27.85;17.83;;;;;;;4.34;62.35;102034.16;5024417;28;20048;-46
2022/03/04 09:37:04;;;;;;;24.70;17.30;;;;;;;4.40;61.66;102036.09;5033756;28;20467;-47
2022/03/04 09:39:33;;;;;;;27.98;17.92;;;;;;;4.45;61.52;102035.50;5033350;28;20049;-49
2022/03/04 09:42:01;;;;;;;23.50;14.35;;;;;;;4.49;61.53;102034.88;5031942;28;20037;-48
2022/03/04 09:44:28;;;;;;;27.67;18.27;;;;;;;4.56;61.70;102034.94;5027156;28;20080;-48
2022/03/04 09:46:58;;;;;;;26.08;18.45;;;;;;;4.60;61.70;102036.22;5012786;28;20404;-45
2022/03/04 09:49:35;;;;;;;24.30;15.32;;;;;;;4.68;61.58;102052.25;5018186;28;20037;-45
2022/03/04 09:52:04;;;;;;;25.40;17.17;;;;;;;4.75;60.73;102040.66;5048705;28;20115;-47
2022/03/04 09:54:33;;;;;;;25.80;15.88;;;;;;;4.78;61.17;102053.75;5023065;28;20072;-48
2022/03/04 09:57:01;;;;;;;26.23;17.48;;;;;;;4.80;61.25;102046.28;5013285;28;20038;-46
2022/03/04 09:59:28;;;;;;;28.52;18.17;;;;;;;4.89;61.47;102045.94;5031360;28;20072;-45
2022/03/04 10:02:00;;;;;;;25.27;18.35;;;;;;;4.90;60.78;102050.28;5033144;28;20583;-47
2022/03/04 10:04:29;;;;;;;24.83;18.35;;;;;;;4.96;61.10;102045.97;5025134;28;20122;-47
2022/03/04 10:06:57;;;;;;;27.60;17.92;;;;;;;5.01;60.79;102043.50;5014538;28;20140;-49
2022/03/04 10:09:45;;;;;;;27.75;17.35;;;;;;;5.08;60.63;102048.94;5013594;28;20085;-47
2022/03/04 10:12:15;;;;;;;23.08;16.90;;;;;;;5.07;60.81;102050.78;5013434;28;20214;-46
2022/03/04 10:15:04;;;;;;;27.13;18.75;;;;;;;5.06;59.88;102034.78;5024292;28;20046;-46
2022/03/04 10:17:33;;;;;;;26.20;17.80;;;;;;;5.05;59.86;102025.84;5013663;28;20069;-46
2022/03/04 10:20:19;;;;;;;27.27;15.80;;;;;;;5.09;60.23;102034.38;5013233;28;20038;-47
2022/03/04 10:22:47;;;;;;;25.80;16.40;;;;;;;5.16;60.71;102037.13;5012197;28;20129;-44
2022/03/04 10:25:22;;;;;;;24.05;16.17;;;;;;;5.19;59.79;102042.09;5028896;28;20461;-48
2022/03/04 10:27:50;;;;;;;26.73;16.45;;;;;;;5.20;59.41;102047.31;5019637;28;20151;-43
2022/03/04 10:30:28;;;;;;;27.15;16.38;;;;;;;5.25;59.13;102044.00;5012350;28;20084;-44
2022/03/04 10:33:11;;;;;;;25.30;17.13;;;;;;;5.30;59.72;102046.94;5014317;28;20100;-45
2022/03/04 10:35:40;;;;;;;25.88;16.33;;;;;;;5.36;61.04;102043.41;5011998;28;20050;-45
2022/03/04 10:38:25;;;;;;;21.42;13.15;;;;;;;5.45;62.28;102039.47;5013435;28;20045;-47
2022/03/04 10:40:52;;;;;;;23.55;16.58;;;;;;;5.47;61.34;102034.72;5013381;28;20136;-46
2022/03/04 10:43:24;;;;;;;27.52;18.80;;;;;;;5.47;59.48;102033.88;5025948;28;20060;-45
2022/03/04 10:46:01;;;;;;;27.27;18.27;;;;;;;5.47;59.12;102036.59;5027804;28;20053;-46
2022/03/04 10:48:29;;;;;;;24.55;16.98;;;;;;;5.51;58.67;102038.69;5032696;28;20052;-48
2022/03/04 10:51:04;;;;;;;26.85;18.30;;;;;;;5.52;58.71;102039.50;5031581;28;20053;-47
2022/03/04 10:53:33;;;;;;;27.88;19.50;;;;;;;5.54;59.63;102043.69;5013141;28;20113;-45
2022/03/04 10:56:04;;;;;;;27.52;18.88;;;;;;;5.57;59.07;102036.19;5014251;28;20489;-48
2022/03/04 10:58:38;;;;;;;25.52;18.27;;;;;;;5.60;59.08;102044.72;5015432;28;20038;-48
2022/03/04 11:01:32;;;;;;;29.63;18.83;;;;;;;5.66;58.81;102040.38;5013812;28;20048;-47
2022/03/04 11:04:01;;;;;;;27.85;18.98;;;;;;;5.73;58.22;102033.13;5015106;28;20500;-47
2022/03/04 11:06:29;;;;;;;25.17;18.77;;;;;;;5.76;58.52;102035.41;5011971;28;20125;-47
2022/03/04 11:08:56;;;;;;;24.98;16.52;;;;;;;5.82;59.16;102028.31;5014649;28;20137;-46
2022/03/04 11:11:26;;;;;;;26.25;16.75;;;;;;;5.84;59.18;102031.66;5016894;28;20068;-49
2022/03/04 11:13:57;;;;;;;28.00;18.98;;;;;;;6.06;59.12;102029.63;5013546;28;20128;-49
2022/03/04 11:16:25;;;;;;;27.48;18.35;;;;;;;6.09;58.18;102023.81;5033961;28;20044;-47
2022/03/04 11:18:55;;;;;;;25.80;18.27;;;;;;;6.11;58.27;102013.56;5050873;28;20115;-46
2022/03/04 11:21:22;;;;;;;28.35;17.08;;;;;;;6.14;58.62;102013.19;5034482;28;20048;-51
2022/03/04 11:23:50;;;;;;;27.52;18.70;;;;;;;6.10;57.96;102011.94;5017518;28;20057;-46